Time;durP1;ratioP1;P1;durP2;ratioP2;P2;SDS_P1;SDS_P2;PMS_P1;PMS_P2;Temp;Humidity;BMP_temperature;BMP_pressure;BME280_temperature;BME280_humidity;BME280_pressure;Samples;Min_cycle;Max_cycle;Signal;HPM_P1;HPM_P2
2022/01/23 00:00:17;;;;;;;;;61.50;46.75;;;;;6.75;67.68;103270.47;5054309;28;45335;-53
2022/01/23 00:02:50;;;;;;;;;51.00;39.25;;;;;6.78;66.55;103277.41;5054256;28;45645;-53
2022/01/23 00:05:20;;;;;;;;;62.00;42.00;;;;;6.78;67.08;103278.25;5054012;28;45968;-54
2022/01/23 00:07:46;;;;;;;;;49.75;41.25;;;;;6.73;67.74;103289.03;5054120;28;45596;-53
2022/01/23 00:10:12;;;;;;;;;53.75;40.25;;;;;6.74;67.40;103289.88;5077284;27;45305;-53
2022/01/23 00:12:46;;;;;;;;;50.00;43.25;;;;;6.71;67.03;103282.94;5097359;27;45398;-53
2022/01/23 00:17:58;;;;;;;;;53.00;38.25;;;;;6.74;67.14;103288.13;5097282;27;45364;-51
2022/01/23 00:20:24;;;;;;;;;51.50;43.25;;;;;6.74;67.00;103282.84;5078493;27;45376;-52
2022/01/23 00:22:55;;;;;;;;;64.75;47.25;;;;;6.74;66.83;103288.13;5097162;27;45599;-53
2022/01/23 00:30:50;;;;;;;;;60.00;44.50;;;;;6.71;67.40;103279.44;5099096;27;45428;-54
2022/01/23 00:33:17;;;;;;;;;60.75;41.75;;;;;6.73;67.49;103278.44;5100677;27;45505;-52
2022/01/23 00:35:44;;;;;;;;;59.50;42.25;;;;;6.74;67.18;103274.91;5115991;27;46444;-49
2022/01/23 00:38:11;;;;;;;;;54.25;42.50;;;;;6.71;67.29;103275.00;5100404;27;45298;-50
2022/01/23 00:40:38;;;;;;;;;60.75;43.50;;;;;6.60;67.36;103256.03;5099975;27;45297;-54
2022/01/23 00:43:16;;;;;;;;;53.25;42.00;;;;;6.69;67.18;103263.59;5100552;27;45266;-46
2022/01/23 00:45:46;;;;;;;;;57.50;43.00;;;;;6.56;66.95;103251.78;5100261;27;46296;-47
2022/01/23 00:48:13;;;;;;;;;49.75;39.75;;;;;6.65;67.12;103264.66;5099981;27;45384;-52
2022/01/23 00:50:42;;;;;;;;;60.00;43.00;;;;;6.61;67.43;103265.69;5100037;27;45402;-53
2022/01/23 00:53:10;;;;;;;;;50.50;38.75;;;;;6.67;67.41;103259.31;5100297;27;45467;-47
2022/01/23 00:55:37;;;;;;;;;58.25;37.00;;;;;6.61;67.45;103252.47;5099758;27;46100;-48
2022/01/23 00:58:03;;;;;;;;;48.25;41.25;;;;;6.61;67.87;103262.19;5100151;27;45402;-47
2022/01/23 01:00:29;;;;;;;;;43.75;36.00;;;;;6.61;67.36;103259.53;5099854;27;45458;-53
2022/01/23 01:02:55;;;;;;;;;53.00;42.50;;;;;6.61;67.71;103252.47;5100204;27;45520;-48
2022/01/23 01:05:21;;;;;;;;;59.75;42.00;;;;;6.67;67.81;103256.69;5099583;27;45383;-52
2022/01/23 01:07:47;;;;;;;;;55.50;41.00;;;;;6.67;67.64;103246.94;5099587;27;45406;-53
2022/01/23 01:10:24;;;;;;;;;59.75;42.50;;;;;6.69;67.51;103250.38;5099977;27;45405;-48
2022/01/23 01:12:52;;;;;;;;;50.25;40.75;;;;;6.65;67.90;103243.50;5099944;27;45227;-49
2022/01/23 01:31:38;;;;;;;;;53.00;35.00;;;;;6.73;67.04;103238.75;5016619;28;45480;-49
2022/01/23 01:34:15;;;;;;;;;50.00;35.75;;;;;6.77;67.02;103246.59;5016575;28;45529;-47
2022/01/23 01:39:10;;;;;;;;;60.50;41.50;;;;;6.76;67.24;103245.72;5015915;28;45392;-47
2022/01/23 01:41:38;;;;;;;;;59.25;40.50;;;;;6.73;67.29;103236.13;5015304;28;45433;-50
2022/01/23 01:44:04;;;;;;;;;56.25;42.75;;;;;6.77;67.63;103239.50;5016145;28;45483;-49
2022/01/23 01:46:29;;;;;;;;;58.25;41.00;;;;;6.79;67.74;103244.75;5016037;28;46546;-47
2022/01/23 01:48:56;;;;;;;;;50.25;36.75;;;;;6.70;67.28;103230.97;5016090;28;45445;-52
2022/01/23 01:51:21;;;;;;;;;54.50;36.50;;;;;6.75;66.97;103244.00;5015972;28;45331;-48
2022/01/23 01:53:51;;;;;;;;;58.50;37.75;;;;;6.67;66.89;103225.78;5016190;28;45289;-47
2022/01/23 01:56:18;;;;;;;;;54.75;40.25;;;;;6.74;67.14;103237.88;5021946;27;45386;-46
2022/01/23 01:59:09;;;;;;;;;53.00;39.50;;;;;6.70;67.13;103238.91;5098882;27;45369;-52
2022/01/23 02:09:30;;;;;;;;;58.75;39.25;;;;;6.66;67.26;103234.66;5098897;27;45233;-48
2022/01/23 02:52:32;;;;;;;;;37.75;33.00;;;;;6.51;66.82;103214.09;4995249;28;45515;-53
2022/01/23 02:54:56;;;;;;;;;36.50;28.25;;;;;6.48;67.10;103209.75;4993876;28;45654;-48
2022/01/23 02:57:37;;;;;;;;;36.75;32.00;;;;;6.49;66.75;103200.94;4995370;28;45666;-48
2022/01/23 03:00:11;;;;;;;;;43.25;30.50;;;;;6.55;66.43;103204.25;4994814;28;47038;-52
2022/01/23 03:02:42;;;;;;;;;42.50;26.00;;;;;6.56;66.43;103206.81;4994932;28;45534;-53
2022/01/23 03:05:12;;;;;;;;;32.00;24.00;;;;;6.55;66.06;103198.97;4995199;28;45460;-52
2022/01/23 03:10:24;;;;;;;;;46.25;32.00;;;;;6.38;66.68;103189.91;4994821;28;45322;-48
2022/01/23 03:31:52;;;;;;;;;31.25;28.25;;;;;6.27;66.64;103197.38;5097209;27;45772;-48
2022/01/23 03:34:22;;;;;;;;;25.00;24.00;;;;;6.23;66.78;103196.63;5097306;27;45310;-52
2022/01/23 03:36:48;;;;;;;;;35.00;29.00;;;;;6.17;67.29;103177.53;5097386;27;45187;-50
2022/01/23 03:39:13;;;;;;;;;41.25;26.00;;;;;6.17;67.05;103185.44;5097304;27;45480;-46
2022/01/23 03:41:41;;;;;;;;;28.25;23.25;;;;;6.19;66.93;103178.31;5097438;27;46609;-46
2022/01/23 03:44:09;;;;;;;;;36.75;28.50;;;;;6.22;66.87;103179.06;5098187;27;45375;-50
2022/01/23 03:49:32;;;;;;;;;35.25;28.75;;;;;6.31;67.25;103179.63;5098533;27;45195;-50
2022/01/23 03:52:11;;;;;;;;;39.75;25.00;;;;;6.30;67.10;103175.25;5097256;27;45483;-50
2022/01/23 03:54:39;;;;;;;;;43.75;29.50;;;;;6.32;67.18;103182.22;5097189;27;45423;-49
2022/01/23 03:57:06;;;;;;;;;47.00;32.50;;;;;6.30;66.86;103173.47;5097176;27;45329;-52
2022/01/23 03:59:33;;;;;;;;;39.50;33.50;;;;;6.33;66.96;103180.44;5097034;27;45232;-51
2022/01/23 04:01:59;;;;;;;;;39.50;31.00;;;;;6.30;67.19;103185.84;5097022;27;46281;-54
2022/01/23 04:04:43;;;;;;;;;31.25;28.75;;;;;6.25;66.78;103178.09;5096850;27;45393;-51
2022/01/23 04:07:22;;;;;;;;;39.50;28.00;;;;;6.19;67.20;103171.28;5100395;27;45596;-49
2022/01/23 04:09:48;;;;;;;;;37.25;30.50;;;;;6.23;67.34;103175.47;5100822;27;45259;-47
2022/01/23 04:12:46;;;;;;;;;34.50;30.00;;;;;6.25;67.21;103160.44;5099837;27;45453;-50
2022/01/23 04:15:13;;;;;;;;;47.50;31.00;;;;;6.27;66.78;103156.88;5100225;27;45392;-49
2022/01/23 05:01:21;;;;;;;;;31.50;24.75;;;;;6.22;67.35;103159.69;4977250;28;45475;-47
2022/01/23 05:06:30;;;;;;;;;36.25;26.25;;;;;6.24;67.40;103179.00;4976998;28;46161;-46
2022/01/23 05:08:56;;;;;;;;;26.25;22.50;;;;;6.14;67.00;103173.19;4976945;28;45531;-47
2022/01/23 05:11:22;;;;;;;;;20.25;18.00;;;;;6.13;67.32;103191.78;4977124;28;45370;-46
2022/01/23 05:13:47;;;;;;;;;40.25;23.25;;;;;6.07;66.98;103186.69;4977306;28;45475;-49
2022/01/23 05:16:13;;;;;;;;;35.25;22.75;;;;;6.03;67.13;103179.84;4976110;28;46095;-45
2022/01/23 05:18:39;;;;;;;;;36.75;23.25;;;;;5.88;66.99;103171.50;4976706;28;45521;-49
2022/01/23 05:23:51;;;;;;;;;28.00;18.75;;;;;5.95;66.65;103178.34;4977059;28;45410;-47
2022/01/23 05:26:16;;;;;;;;;40.00;19.75;;;;;5.95;67.13;103188.91;5000514;27;46120;-50
2022/01/23 05:28:41;;;;;;;;;31.25;20.25;;;;;5.95;67.44;103194.19;5099478;27;45352;-47
2022/01/23 05:31:07;;;;;;;;;33.00;22.25;;;;;5.95;67.03;103193.31;5081136;27;45251;-47
2022/01/23 05:33:32;;;;;;;;;34.50;27.00;;;;;5.95;67.64;103196.81;5099597;27;45221;-48
2022/01/23 05:35:57;;;;;;;;;39.00;31.50;;;;;5.96;67.63;103184.47;5099230;27;46137;-48
2022/01/23 05:38:23;;;;;;;;;27.75;15.25;;;;;5.95;67.99;103188.91;5098967;27;45232;-49
2022/01/23 05:40:56;;;;;;;;;35.00;19.75;;;;;5.95;67.32;103193.31;5098911;27;45501;-49
2022/01/23 05:43:21;;;;;;;;;35.00;25.00;;;;;5.94;67.97;103179.25;5099231;27;45376;-49
2022/01/23 05:45:46;;;;;;;;;39.75;28.75;;;;;5.96;67.90;103185.31;5098666;27;46151;-47
2022/01/23 05:48:12;;;;;;;;;30.25;22.25;;;;;5.94;67.60;103181.00;5099037;27;45256;-52
2022/01/23 05:50:38;;;;;;;;;31.50;20.50;;;;;5.92;67.65;103190.78;5099005;27;45621;-46
2022/01/23 05:53:03;;;;;;;;;29.25;22.75;;;;;5.91;68.28;103191.69;5099231;27;45577;-51
2022/01/23 05:55:28;;;;;;;;;34.25;24.00;;;;;5.92;67.99;103190.78;5098869;27;45431;-51
2022/01/23 05:57:54;;;;;;;;;37.00;28.00;;;;;5.91;67.99;103192.53;5099019;27;45356;-46
2022/01/23 06:00:19;;;;;;;;;30.75;24.50;;;;;5.86;67.77;103181.28;5098907;27;45777;-47
2022/01/23 06:02:44;;;;;;;;;33.75;22.75;;;;;5.87;67.60;103196.22;5098961;27;45312;-48
2022/01/23 06:05:10;;;;;;;;;25.00;20.50;;;;;5.80;66.80;103186.78;5098893;27;45596;-47
2022/01/23 06:07:35;;;;;;;;;29.25;24.25;;;;;5.79;68.10;103192.97;5098473;27;45280;-48
2022/01/23 06:10:01;;;;;;;;;31.00;23.00;;;;;5.81;67.95;103195.56;5098794;27;45343;-51
2022/01/23 06:12:27;;;;;;;;;33.75;24.25;;;;;5.81;68.39;103196.41;5080212;27;45413;-47
2022/01/23 06:14:52;;;;;;;;;26.00;19.50;;;;;5.81;67.98;103188.50;5097973;27;45501;-48
2022/01/23 06:17:19;;;;;;;;;28.75;20.75;;;;;5.79;68.36;103202.69;5080159;27;45408;-48
2022/01/23 06:19:44;;;;;;;;;20.75;16.50;;;;;5.78;68.50;103201.84;5098554;27;45552;-47
2022/01/23 06:22:10;;;;;;;;;28.50;19.75;;;;;5.79;67.92;103195.63;5098606;27;45382;-49
2022/01/23 06:24:37;;;;;;;;;31.25;19.00;;;;;5.76;67.57;103193.94;5098333;27;45946;-49
2022/01/23 06:27:03;;;;;;;;;17.25;14.50;;;;;5.79;68.03;103194.75;5098336;27;45476;-48
2022/01/23 06:29:32;;;;;;;;;27.00;17.75;;;;;5.78;68.03;103193.91;5097942;27;45294;-52
2022/01/23 06:32:02;;;;;;;;;19.75;13.25;;;;;5.79;67.34;103186.84;5098579;27;45489;-47
2022/01/23 06:34:28;;;;;;;;;19.00;13.25;;;;;5.43;67.74;103129.16;5098075;27;45327;-48
2022/01/23 06:36:54;;;;;;;;;23.50;14.25;;;;;5.66;67.66;103184.63;5098263;27;45565;-51
2022/01/23 06:39:22;;;;;;;;;17.00;10.75;;;;;5.68;67.39;103200.41;5097815;27;45526;-48
2022/01/23 06:41:47;;;;;;;;;22.00;16.75;;;;;5.65;68.25;103198.78;5098408;27;45446;-48
2022/01/23 06:44:12;;;;;;;;;20.25;17.25;;;;;5.67;67.99;103196.91;5098073;27;46147;-50
2022/01/23 06:46:39;;;;;;;;;17.25;15.50;;;;;5.69;68.06;103194.25;5097801;27;45400;-47
2022/01/23 06:49:06;;;;;;;;;16.75;12.00;;;;;5.70;67.55;103191.53;5098203;27;45233;-51
2022/01/23 06:51:31;;;;;;;;;19.25;14.50;;;;;5.69;67.29;103188.97;5098153;27;45425;-52
2022/01/23 06:53:57;;;;;;;;;17.00;11.00;;;;;5.68;67.72;103190.72;5096832;27;46412;-48
2022/01/23 06:56:22;;;;;;;;;17.75;15.25;;;;;5.64;67.10;103193.53;5097962;27;45458;-51
2022/01/23 06:58:47;;;;;;;;;14.75;10.25;;;;;5.62;67.33;103205.94;5098026;27;45210;-50
2022/01/23 07:01:13;;;;;;;;;19.00;14.25;;;;;5.59;67.88;103212.16;5098291;27;45315;-51
2022/01/23 07:03:38;;;;;;;;;19.75;13.50;;;;;5.56;67.89;103206.13;5097716;27;46321;-48
2022/01/23 07:06:04;;;;;;;;;26.25;20.25;;;;;5.60;68.09;103202.47;5097860;27;45243;-50
2022/01/23 07:08:31;;;;;;;;;14.00;13.25;;;;;5.55;68.16;103205.28;5097624;27;45452;-50
2022/01/23 07:10:57;;;;;;;;;24.25;17.00;;;;;5.55;68.33;103197.34;5097775;27;45369;-53
2022/01/23 07:13:22;;;;;;;;;17.00;17.00;;;;;5.66;68.42;103208.41;5097676;27;46096;-49
2022/01/23 07:15:48;;;;;;;;;25.75;19.25;;;;;5.58;68.56;103197.25;5097607;27;45343;-48
2022/01/23 07:18:15;;;;;;;;;23.25;17.75;;;;;5.66;67.72;103208.41;5097761;27;45374;-47
2022/01/23 07:20:42;;;;;;;;;16.25;14.00;;;;;5.65;68.37;103211.13;5097752;27;45330;-50
2022/01/23 07:23:07;;;;;;;;;30.25;17.00;;;;;5.66;68.61;103204.91;5097295;27;47071;-50
2022/01/23 07:25:33;;;;;;;;;16.00;14.75;;;;;5.67;68.14;103203.97;5097449;27;45368;-48
2022/01/23 07:27:59;;;;;;;;;21.00;14.75;;;;;5.67;68.51;103204.84;5097735;27;45218;-49
2022/01/23 07:32:50;;;;;;;;;21.75;19.25;;;;;5.69;67.76;103203.03;5097251;27;45915;-48
2022/01/23 07:35:16;;;;;;;;;18.00;15.00;;;;;5.67;67.43;103204.84;5097293;27;45440;-51
2022/01/23 07:37:41;;;;;;;;;18.50;16.50;;;;;5.67;68.07;103211.91;5097681;27;45313;-51
2022/01/23 07:40:07;;;;;;;;;22.00;13.50;;;;;5.66;67.79;103215.47;5098030;27;45260;-49
2022/01/23 07:42:33;;;;;;;;;23.50;16.25;;;;;5.53;67.22;103188.63;5100872;27;45406;-50
2022/01/23 07:45:00;;;;;;;;;26.50;18.75;;;;;5.68;67.92;103208.34;5101188;27;45330;-48
2022/01/23 07:47:25;;;;;;;;;21.50;15.25;;;;;5.68;67.06;103203.06;5101170;27;45236;-48
2022/01/23 07:49:50;;;;;;;;;14.00;10.75;;;;;5.35;67.06;103150.56;5101308;27;45145;-50
2022/01/23 07:52:17;;;;;;;;;14.25;14.25;;;;;5.67;67.00;103201.34;5100729;27;46353;-46
2022/01/23 07:54:43;;;;;;;;;18.00;10.00;;;;;5.69;66.84;103196.88;5100781;27;45254;-51
2022/01/23 07:57:09;;;;;;;;;21.00;18.00;;;;;5.69;67.11;103207.44;5100997;27;45208;-50
2022/01/23 07:59:34;;;;;;;;;19.75;11.00;;;;;5.69;66.87;103212.72;5100840;27;45362;-48
2022/01/23 08:02:00;;;;;;;;;26.00;12.00;;;;;5.67;67.45;103220.69;5100553;27;46084;-51
2022/01/23 08:04:26;;;;;;;;;17.75;13.50;;;;;5.66;66.95;103228.69;5100780;27;45436;-47
2022/01/23 08:07:06;;;;;;;;;17.00;13.00;;;;;5.67;67.51;103236.53;5100686;27;45620;-49
2022/01/23 08:09:32;;;;;;;;;23.00;17.75;;;;;5.70;67.90;103230.28;5100775;27;45385;-49
2022/01/23 08:11:57;;;;;;;;;17.00;16.00;;;;;5.71;66.92;103235.50;5100599;27;46086;-50
2022/01/23 08:14:22;;;;;;;;;21.50;15.25;;;;;5.70;67.62;103235.56;5100554;27;45239;-48
2022/01/23 08:16:48;;;;;;;;;24.50;17.00;;;;;5.58;67.54;103242.13;5100776;27;45231;-47
2022/01/23 08:19:13;;;;;;;;;19.25;16.00;;;;;5.48;67.97;103236.31;5100755;27;45207;-46
2022/01/23 08:21:38;;;;;;;;;30.50;20.50;;;;;5.47;67.93;103239.00;5100368;27;47007;-47
2022/01/23 08:24:04;;;;;;;;;24.50;12.75;;;;;5.45;67.91;103232.91;5100347;27;45360;-50
2022/01/23 08:26:30;;;;;;;;;19.00;16.75;;;;;5.48;67.78;103249.53;5100621;27;45363;-49
2022/01/23 08:28:55;;;;;;;;;26.50;15.75;;;;;5.45;68.20;103243.47;5100890;27;45433;-46
2022/01/23 08:31:20;;;;;;;;;22.00;17.00;;;;;5.49;67.68;103243.31;5100159;27;45382;-48
2022/01/23 08:33:46;;;;;;;;;22.25;19.00;;;;;5.49;67.79;103243.31;5100242;27;45472;-46
2022/01/23 08:36:11;;;;;;;;;20.25;15.50;;;;;5.49;67.63;103235.41;5099792;27;45389;-47
2022/01/23 08:38:36;;;;;;;;;28.25;17.00;;;;;5.50;67.80;103244.19;5099981;27;45466;-46
2022/01/23 08:43:37;;;;;;;;;26.50;21.00;;;;;5.55;67.92;103241.38;5100205;27;45463;-45
2022/01/23 08:46:04;;;;;;;;;22.75;15.00;;;;;5.45;67.83;103238.19;5100669;27;45334;-49
2022/01/23 08:48:30;;;;;;;;;22.50;16.00;;;;;5.58;67.65;103249.19;5101768;27;45265;-51
2022/01/23 08:50:56;;;;;;;;;14.25;11.50;;;;;5.56;67.97;103249.22;5100513;27;46572;-49
2022/01/23 08:53:21;;;;;;;;;22.75;17.00;;;;;5.48;67.63;103232.81;5100190;27;45287;-49
2022/01/23 08:55:49;;;;;;;;;16.00;10.50;;;;;5.43;67.88;103229.44;5100298;27;45348;-47
2022/01/23 08:58:16;;;;;;;;;20.00;15.00;;;;;5.53;67.54;103252.00;5100199;27;45456;-49
2022/01/23 09:00:42;;;;;;;;;16.50;14.75;;;;;5.56;67.48;103251.03;5099846;27;46376;-54
2022/01/23 09:03:08;;;;;;;;;18.25;9.00;;;;;5.59;67.72;103243.00;5099631;27;45326;-47
2022/01/23 09:05:33;;;;;;;;;21.25;18.75;;;;;5.61;67.63;103246.47;5099803;27;45290;-48
2022/01/23 09:07:59;;;;;;;;;24.75;17.50;;;;;5.59;68.17;103241.22;5099955;27;45457;-47
2022/01/23 09:10:39;;;;;;;;;24.75;15.75;;;;;5.61;67.50;103257.88;5099273;27;46221;-48
2022/01/23 09:13:08;;;;;;;;;31.75;18.75;;;;;5.57;67.75;103244.84;5099516;27;45425;-47
2022/01/23 09:15:35;;;;;;;;;25.00;19.50;;;;;5.56;68.10;103253.66;5099599;27;45374;-49
2022/01/23 09:18:01;;;;;;;;;27.25;17.25;;;;;5.57;68.84;103239.56;5099710;27;45254;-51
2022/01/23 09:20:26;;;;;;;;;22.25;17.75;;;;;5.57;68.17;103244.84;5099145;27;45323;-47
2022/01/23 09:22:52;;;;;;;;;18.75;14.50;;;;;5.53;67.65;103246.72;5099334;27;45254;-50
2022/01/23 09:25:18;;;;;;;;;28.75;13.50;;;;;5.47;68.31;103249.56;5099549;27;45916;-56
2022/01/23 09:27:43;;;;;;;;;22.50;14.75;;;;;5.53;68.67;103259.91;5100066;27;45275;-50
2022/01/23 09:30:17;;;;;;;;;17.00;15.50;;;;;5.57;67.79;103264.19;5099287;27;45296;-49
2022/01/23 09:32:44;;;;;;;;;25.75;20.25;;;;;5.59;67.85;103262.34;5099200;27;45203;-49
2022/01/23 09:35:10;;;;;;;;;21.50;12.00;;;;;5.57;67.40;103261.53;5099392;27;45438;-47
2022/01/23 09:37:36;;;;;;;;;15.75;12.00;;;;;5.58;67.68;103276.47;5099222;27;45354;-48
2022/01/23 09:40:05;;;;;;;;;13.75;9.50;;;;;5.55;67.01;103266.00;5097760;27;45499;-46
2022/01/23 09:42:41;;;;;;;;;13.00;11.00;;;;;5.57;67.67;103266.81;5099095;27;45258;-46
2022/01/23 09:45:09;;;;;;;;;15.25;12.25;;;;;5.57;66.81;103266.81;5114841;27;45327;-47
2022/01/23 09:47:39;;;;;;;;;17.75;10.75;;;;;5.57;67.31;103265.97;5098937;27;45516;-51
2022/01/23 09:50:07;;;;;;;;;14.75;8.75;;;;;5.55;66.85;103266.00;5098219;27;46015;-49
2022/01/23 09:52:35;;;;;;;;;15.50;10.50;;;;;5.55;67.44;103265.13;5098305;27;45330;-50
2022/01/23 09:55:07;;;;;;;;;13.50;10.00;;;;;5.56;67.67;103253.66;5098692;27;45292;-48
2022/01/23 09:57:36;;;;;;;;;17.75;14.25;;;;;5.55;67.67;103249.31;5097549;27;45498;-49
2022/01/23 10:00:06;;;;;;;;;20.25;10.50;;;;;5.44;67.04;103244.41;5098458;27;45927;-49
2022/01/23 10:02:31;;;;;;;;;16.75;12.50;;;;;5.53;67.42;103253.78;5097505;27;45348;-56
2022/01/23 10:04:57;;;;;;;;;14.50;12.50;;;;;5.52;67.38;103258.22;5098719;27;45372;-53
2022/01/23 10:07:22;;;;;;;;;17.00;14.75;;;;;5.54;67.77;103259.00;5098846;27;45333;-51
2022/01/23 10:09:54;;;;;;;;;22.25;12.50;;;;;5.56;67.23;103251.88;5098474;27;45501;-54
2022/01/23 10:12:20;;;;;;;;;16.00;8.00;;;;;5.55;67.08;103260.72;5098611;27;45386;-49
2022/01/23 10:14:46;;;;;;;;;12.00;12.00;;;;;5.55;66.77;103252.81;5098475;27;45420;-49
2022/01/23 10:17:12;;;;;;;;;16.00;8.75;;;;;5.59;67.36;103264.97;5098914;27;45409;-49
2022/01/23 10:19:38;;;;;;;;;14.00;10.75;;;;;5.52;67.79;103247.66;5098214;27;46111;-51
2022/01/23 10:22:05;;;;;;;;;16.25;12.25;;;;;5.63;67.68;103266.59;5098216;27;45301;-54
2022/01/23 10:24:31;;;;;;;;;21.50;14.75;;;;;5.64;67.64;103260.41;5098431;27;45277;-60
2022/01/23 10:26:58;;;;;;;;;12.75;10.00;;;;;5.61;67.34;103263.16;5079874;27;45389;-57
2022/01/23 10:29:32;;;;;;;;;12.25;10.00;;;;;5.62;68.00;103261.38;5098410;27;45342;-57
2022/01/23 10:32:18;;;;;;;;;11.75;10.00;;;;;5.67;67.31;103268.22;5098291;27;45442;-58
2022/01/23 10:34:44;;;;;;;;;13.50;8.25;;;;;5.71;67.94;103263.69;5098520;27;45337;-56
2022/01/23 10:37:12;;;;;;;;;11.25;11.25;;;;;5.70;67.75;103267.25;5098377;27;45387;-59
2022/01/23 10:39:47;;;;;;;;;15.50;11.00;;;;;5.70;67.35;103262.84;5098087;27;46146;-59
2022/01/23 10:42:49;;;;;;;;;15.00;12.00;;;;;5.71;67.41;103259.28;5097924;27;45266;-60
2022/01/23 10:50:50;;;;;;;;;20.50;12.00;;;;;5.63;67.60;103237.56;5098129;27;45970;-58
2022/01/23 10:53:15;;;;;;;;;13.00;12.25;;;;;5.72;66.95;103255.72;5097867;27;45371;-56
2022/01/23 10:55:43;;;;;;;;;13.25;11.00;;;;;5.73;67.44;103261.84;5097737;27;45405;-61
2022/01/23 10:58:19;;;;;;;;;11.50;6.00;;;;;5.71;66.81;103254.00;5080370;27;45474;-49
2022/01/23 11:00:45;;;;;;;;;17.50;10.50;;;;;5.72;67.07;103245.16;5097769;27;46142;-60
2022/01/23 11:03:22;;;;;;;;;11.75;10.50;;;;;5.77;66.78;103255.56;5097949;27;45259;-44
2022/01/23 11:05:48;;;;;;;;;13.25;10.00;;;;;5.75;67.09;103245.06;5098229;27;45380;-47
2022/01/23 11:08:21;;;;;;;;;23.00;12.50;;;;;5.72;66.90;103231.94;5098084;27;45413;-50
2022/01/23 11:11:12;;;;;;;;;14.75;12.00;;;;;5.76;67.48;103240.63;5097830;27;46025;-53
2022/01/23 11:19:24;;;;;;;;;11.50;9.50;;;;;5.84;67.11;103240.34;5097485;27;45862;-54
2022/01/23 11:21:52;;;;;;;;;17.00;14.75;;;;;5.81;66.94;103235.19;5097329;27;46317;-48
2022/01/23 11:24:18;;;;;;;;;9.75;7.25;;;;;5.78;67.10;103217.69;5097599;27;45398;-47
2022/01/23 11:26:44;;;;;;;;;11.00;8.50;;;;;5.78;66.54;103216.81;5112983;27;45337;-54
2022/01/23 11:29:15;;;;;;;;;18.25;15.00;;;;;5.81;67.03;103217.53;5079422;27;45451;-46
2022/01/23 11:31:43;;;;;;;;;19.25;14.00;;;;;5.79;66.53;103203.53;5097500;27;45482;-51
2022/01/23 11:34:11;;;;;;;;;14.25;11.25;;;;;5.76;67.04;103215.06;5097204;27;45293;-50
2022/01/23 11:36:37;;;;;;;;;22.00;14.00;;;;;5.74;66.55;103211.63;5097685;27;45326;-52
2022/01/23 11:39:12;;;;;;;;;16.00;11.75;;;;;5.72;66.86;103207.31;5082600;27;45558;-48
2022/01/23 11:56:26;;;;;;;;;17.50;13.50;;;;;5.88;66.02;103189.16;5100430;27;45370;-55
2022/01/23 11:59:12;;;;;;;;;12.00;11.00;;;;;5.91;65.49;103200.47;5100630;27;45451;-47
2022/01/23 12:01:41;;;;;;;;;13.00;11.00;;;;;5.96;65.90;103185.31;5098182;27;45335;-54
2022/01/23 12:04:14;;;;;;;;;10.75;8.25;;;;;5.99;65.96;103179.09;5096616;27;46029;-50
2022/01/23 12:06:42;;;;;;;;;15.00;15.00;;;;;6.00;65.32;103175.50;5096993;27;45326;-47
2022/01/23 12:09:13;;;;;;;;;9.50;9.50;;;;;6.02;65.41;103176.31;5097223;27;45504;-46
2022/01/23 12:11:41;;;;;;;;;13.50;11.75;;;;;5.98;65.16;103170.31;5097140;27;45357;-47
2022/01/23 12:16:59;;;;;;;;;19.75;15.50;;;;;5.94;65.50;103171.34;5096993;27;45302;-45
2022/01/23 12:19:27;;;;;;;;;15.50;15.00;;;;;5.83;65.09;103146.19;5097038;27;45417;-48
2022/01/23 12:21:55;;;;;;;;;15.50;10.75;;;;;5.93;65.53;103152.88;5097103;27;45215;-48
2022/01/23 12:24:23;;;;;;;;;16.75;14.00;;;;;5.87;65.69;103150.44;5096956;27;45551;-44
2022/01/23 12:26:50;;;;;;;;;12.50;9.00;;;;;5.89;65.52;103157.38;5098550;27;45439;-46
2022/01/23 12:29:28;;;;;;;;;20.00;18.00;;;;;5.90;66.08;103150.31;5099934;27;45437;-45
2022/01/23 12:32:15;;;;;;;;;13.75;11.50;;;;;5.91;65.73;103149.41;5100341;27;45316;-47
2022/01/23 12:34:53;;;;;;;;;14.00;10.75;;;;;5.96;65.76;103152.78;5099991;27;45491;-46
2022/01/23 12:37:19;;;;;;;;;19.25;14.00;;;;;5.96;65.75;103142.19;5099860;27;45429;-46
2022/01/23 12:39:46;;;;;;;;;16.25;11.00;;;;;5.95;65.78;103136.06;5099775;27;45475;-44
2022/01/23 12:42:11;;;;;;;;;19.75;17.00;;;;;5.95;65.30;103130.78;5100075;27;45429;-46
2022/01/23 12:44:39;;;;;;;;;13.50;11.00;;;;;5.97;65.90;103128.06;5100139;27;45412;-47
2022/01/23 12:47:26;;;;;;;;;15.25;13.25;;;;;5.99;65.89;103126.25;5099829;27;45403;-45
2022/01/23 12:49:53;;;;;;;;;18.00;13.00;;;;;6.00;66.13;103120.03;5099590;27;45260;-52
2022/01/23 12:52:21;;;;;;;;;26.75;14.00;;;;;5.87;65.61;103098.47;5099720;27;45403;-53
2022/01/23 12:54:46;;;;;;;;;19.00;12.50;;;;;6.00;66.13;103117.38;5099323;27;45976;-45
2022/01/23 12:57:14;;;;;;;;;18.00;15.50;;;;;5.99;65.52;103108.59;5098625;27;45414;-46
2022/01/23 12:59:42;;;;;;;;;14.25;10.75;;;;;6.01;66.34;103108.53;5099726;27;45310;-44
2022/01/23 13:02:16;;;;;;;;;16.50;11.25;;;;;5.99;66.10;103105.97;5100000;27;45531;-53
2022/01/23 13:04:50;;;;;;;;;21.50;16.00;;;;;6.03;66.31;103098.78;5099510;27;45398;-45
2022/01/23 13:08:00;;;;;;;;;24.00;20.50;;;;;6.00;66.26;103091.81;5095843;27;46137;-45
2022/01/23 13:10:48;;;;;;;;;14.75;13.00;;;;;6.10;66.05;103086.16;5078532;28;45356;-54
2022/01/23 13:16:14;;;;;;;;;34.00;19.00;;;;;6.05;65.78;103089.00;5078489;28;45456;-49
2022/01/23 13:32:41;;;;;;;;;22.00;17.25;;;;;6.07;65.58;103070.44;5077474;28;45377;-43
2022/01/23 13:35:09;;;;;;;;;20.25;15.00;;;;;6.00;66.06;103073.31;5078182;28;45489;-45
2022/01/23 13:37:38;;;;;;;;;27.75;19.00;;;;;6.01;66.17;103074.19;5077213;28;47066;-48
2022/01/23 13:40:12;;;;;;;;;20.25;15.00;;;;;6.07;66.30;103070.44;5077761;28;45316;-44
2022/01/23 14:04:34;;;;;;;;;26.00;14.00;;;;;6.10;65.88;103026.25;5078039;28;45362;-44
2022/01/23 14:06:59;;;;;;;;;20.00;13.50;;;;;6.13;65.86;103022.63;5079518;27;45310;-46
2022/01/23 14:09:26;;;;;;;;;29.75;20.00;;;;;6.14;66.21;103022.56;5097121;27;45870;-45
2022/01/23 14:11:51;;;;;;;;;21.00;17.25;;;;;6.14;65.65;103025.22;5096815;27;45192;-45
2022/01/23 14:14:25;;;;;;;;;26.00;20.75;;;;;6.14;65.84;103011.13;5097803;27;45388;-44
2022/01/23 14:16:53;;;;;;;;;15.25;13.25;;;;;6.18;66.18;103018.88;5098398;27;45195;-44
2022/01/23 14:19:27;;;;;;;;;28.25;20.00;;;;;6.15;65.73;102999.63;5097806;27;45334;-45
2022/01/23 14:21:59;;;;;;;;;28.50;17.50;;;;;6.25;65.80;103016.84;5098099;27;45695;-43
2022/01/23 14:24:26;;;;;;;;;28.00;18.75;;;;;6.23;65.63;103010.75;5098357;27;45429;-45
2022/01/23 14:27:00;;;;;;;;;25.25;19.25;;;;;6.25;65.55;103011.56;5098241;27;45423;-46
2022/01/23 14:29:28;;;;;;;;;31.50;16.00;;;;;6.29;65.46;103017.59;5097701;27;45978;-43
2022/01/23 14:32:03;;;;;;;;;22.75;16.00;;;;;6.32;65.60;103010.41;5097950;27;45330;-45
2022/01/23 14:34:29;;;;;;;;;20.75;16.25;;;;;6.35;65.28;103001.47;5097732;27;45415;-46
2022/01/23 14:36:58;;;;;;;;;31.25;18.25;;;;;6.35;65.41;102998.81;5098226;27;45291;-46
2022/01/23 14:39:24;;;;;;;;;28.50;18.00;;;;;6.40;64.88;103004.78;5097906;27;46487;-44
2022/01/23 14:41:50;;;;;;;;;21.25;17.75;;;;;6.41;64.68;102993.28;5097431;27;45393;-43
2022/01/23 14:44:20;;;;;;;;;14.25;10.00;;;;;6.41;64.93;102999.44;5098174;27;45780;-46
2022/01/23 14:46:47;;;;;;;;;29.50;19.00;;;;;6.44;64.86;102993.13;5098250;27;45522;-49
2022/01/23 14:49:21;;;;;;;;;19.75;14.50;;;;;6.47;64.66;102999.16;5097233;27;46419;-45
2022/01/23 14:51:46;;;;;;;;;19.00;14.00;;;;;6.48;64.32;102992.94;5097645;27;45424;-46
2022/01/23 14:54:12;;;;;;;;;24.25;15.00;;;;;6.46;64.23;102993.94;5097564;27;45412;-45
2022/01/23 14:56:39;;;;;;;;;27.00;15.25;;;;;6.43;64.29;102989.66;5097715;27;45391;-45
2022/01/23 14:59:08;;;;;;;;;21.00;19.75;;;;;6.43;64.23;102992.28;5097519;27;47330;-47
2022/01/23 15:01:34;;;;;;;;;26.50;17.50;;;;;6.42;64.28;102985.28;5097306;27;45255;-44
2022/01/23 15:04:05;;;;;;;;;31.00;18.75;;;;;6.43;64.61;102981.72;5097690;27;45456;-44